createdAt,value
2019-02-04T00:00:55.739Z,101360.92
2019-02-04T00:03:21.731Z,101366.10
2019-02-04T00:05:47.881Z,101355.74
2019-02-04T00:08:13.992Z,101352.64
2019-02-04T00:10:40.405Z,101370.02
2019-02-04T00:13:06.542Z,101370.02
2019-02-04T00:15:32.761Z,101362.66
2019-02-04T00:17:58.940Z,101360.95
2019-02-04T00:20:25.066Z,101354.89
2019-02-04T00:22:51.015Z,101354.89
2019-02-04T00:25:17.129Z,101354.89
2019-02-04T00:27:43.438Z,101368.76
2019-02-04T00:30:18.624Z,101368.76
2019-02-04T00:32:44.660Z,101361.77
2019-02-04T00:35:10.874Z,101361.77
2019-02-04T00:37:37.090Z,101367.88
2019-02-04T00:40:07.092Z,101367.88
2019-02-04T00:42:33.208Z,101310.61
2019-02-04T00:44:59.451Z,101354.41
2019-02-04T00:47:25.369Z,101354.41
2019-02-04T00:49:51.303Z,101351.45
2019-02-04T00:52:17.406Z,101357.10
2019-02-04T00:54:43.458Z,101350.16
2019-02-04T00:57:09.496Z,101352.70
2019-02-04T00:59:35.557Z,101354.07
2019-02-04T01:02:01.580Z,101348.89
2019-02-04T01:04:27.615Z,101348.89
2019-02-04T01:06:53.839Z,101348.48
2019-02-04T01:09:20.001Z,101348.48
2019-02-04T01:11:45.956Z,101344.59
2019-02-04T01:14:11.909Z,101344.59
2019-02-04T01:16:37.914Z,101346.77
2019-02-04T01:19:04.299Z,101348.48
2019-02-04T01:21:30.726Z,101350.19
2019-02-04T01:23:57.066Z,101346.33
2019-02-04T01:26:23.096Z,101337.27
2019-02-04T01:28:49.098Z,101337.27
2019-02-04T01:31:15.019Z,101341.59
2019-02-04T01:33:41.049Z,101345.92
2019-02-04T01:36:07.241Z,101344.63
2019-02-04T01:38:33.542Z,101348.92
2019-02-04T01:40:59.561Z,101348.92
2019-02-04T01:43:25.811Z,101355.87
2019-02-04T01:45:51.909Z,101355.87
2019-02-04T01:48:17.813Z,101351.13
2019-02-04T01:50:43.736Z,101348.95
2019-02-04T01:53:09.725Z,101348.55
2019-02-04T01:55:35.657Z,101349.43
2019-02-04T01:58:01.566Z,101353.72
2019-02-04T02:00:31.774Z,101358.91
2019-02-04T02:02:57.806Z,101358.91
2019-02-04T02:05:23.889Z,101361.09
2019-02-04T02:07:50.225Z,101361.09
2019-02-04T02:10:18.934Z,101358.50
2019-02-04T02:12:45.065Z,101350.75
2019-02-04T02:15:11.208Z,101358.97
2019-02-04T02:17:37.382Z,101347.22
2019-02-04T02:20:10.364Z,101347.22
2019-02-04T02:22:36.282Z,101352.09
2019-02-04T02:25:03.224Z,101350.31
2019-02-04T02:27:29.229Z,101346.02
2019-02-04T02:29:55.186Z,101349.49
2019-02-04T02:32:21.433Z,101348.61
2019-02-04T02:34:47.368Z,101348.61
2019-02-04T02:37:13.726Z,101343.84
2019-02-04T02:39:40.034Z,101343.84
2019-02-04T02:42:05.973Z,101344.75
2019-02-04T02:44:31.976Z,101338.18
2019-02-04T02:46:57.928Z,101343.02
2019-02-04T02:49:23.995Z,101334.77
2019-02-04T02:51:50.053Z,101329.56
2019-02-04T02:54:16.095Z,101329.56
2019-02-04T02:56:42.318Z,101332.21
2019-02-04T02:59:08.229Z,101318.37
2019-02-04T03:01:34.280Z,101326.18
2019-02-04T03:04:00.411Z,101329.21
2019-02-04T03:06:26.427Z,101334.36
2019-02-04T03:08:52.657Z,101334.36
2019-02-04T03:11:18.695Z,101289.66
2019-02-04T03:13:44.600Z,101342.57
2019-02-04T03:16:11.162Z,101334.80
2019-02-04T03:18:37.277Z,101326.08
2019-02-04T03:21:03.420Z,101331.30
2019-02-04T03:23:29.344Z,101334.77
2019-02-04T03:25:55.269Z,101334.77
2019-02-04T03:28:21.351Z,101331.77
2019-02-04T03:30:47.388Z,101328.73
2019-02-04T03:33:13.500Z,101329.56
2019-02-04T03:35:40.061Z,101330.47
2019-02-04T03:38:05.956Z,101330.47
2019-02-04T03:40:32.452Z,101332.14
2019-02-04T03:42:58.750Z,101334.33
2019-02-04T03:45:24.873Z,101331.73
2019-02-04T03:48:03.801Z,101340.39
2019-02-04T03:50:19.090Z,101340.39
2019-02-04T03:52:45.014Z,101326.05
2019-02-04T03:55:13.043Z,101326.05
2019-02-04T03:57:39.164Z,101334.33
2019-02-04T04:00:08.893Z,101334.33
2019-02-04T04:02:35.027Z,101335.63
2019-02-04T04:05:01.190Z,101336.45
2019-02-04T04:07:27.220Z,101339.00
2019-02-04T04:09:53.145Z,101339.00
2019-02-04T04:12:19.310Z,101336.41
2019-02-04T04:14:45.610Z,101346.87
2019-02-04T04:17:11.754Z,101331.27
2019-02-04T04:19:37.671Z,101335.22
2019-02-04T04:22:03.779Z,101337.33
2019-02-04T04:24:29.828Z,101334.77
2019-02-04T04:26:55.773Z,101338.66
2019-02-04T04:29:21.801Z,101338.66
2019-02-04T04:31:48.035Z,101341.22
2019-02-04T04:34:13.973Z,101341.22
2019-02-04T04:36:39.987Z,101335.19
2019-02-04T04:39:06.868Z,101335.63
2019-02-04T04:41:33.075Z,101330.00
2019-02-04T04:43:59.005Z,101322.61
2019-02-04T04:46:25.125Z,101322.61
2019-02-04T04:48:51.377Z,101329.11
2019-02-04T04:51:17.362Z,101329.11
2019-02-04T04:53:43.295Z,101327.44
2019-02-04T04:56:09.416Z,101326.12
2019-02-04T04:58:35.354Z,101335.59
2019-02-04T05:01:01.407Z,101335.59
2019-02-04T05:03:27.512Z,101332.11
2019-02-04T05:05:53.495Z,101332.11
2019-02-04T05:08:19.481Z,101330.82
2019-02-04T05:10:46.611Z,101335.59
2019-02-04T05:13:12.657Z,101328.67
2019-02-04T05:15:38.588Z,101326.88
2019-02-04T05:18:04.748Z,101323.88
2019-02-04T05:20:30.739Z,101334.67
2019-02-04T05:22:56.645Z,101334.67
2019-02-04T05:25:22.583Z,101326.46
2019-02-04T05:27:49.001Z,101324.76
2019-02-04T05:30:16.958Z,101328.20
2019-02-04T05:32:43.172Z,101324.25
2019-02-04T05:35:11.116Z,101324.25
2019-02-04T05:37:37.139Z,101325.14
2019-02-04T05:40:07.003Z,101326.88
2019-02-04T05:42:34.710Z,101336.76
2019-02-04T05:45:01.173Z,101336.76
2019-02-04T05:47:27.148Z,101335.50
2019-02-04T05:49:53.207Z,101335.50
2019-02-04T05:52:19.122Z,101345.45
2019-02-04T05:54:45.045Z,101345.45
2019-02-04T05:57:11.188Z,101334.61
2019-02-04T05:59:37.218Z,101339.73
2019-02-04T06:02:03.972Z,101339.73
2019-02-04T06:04:30.195Z,101353.59
2019-02-04T06:06:56.234Z,101353.59
2019-02-04T06:09:22.296Z,101361.37
2019-02-04T06:11:48.336Z,101367.43
2019-02-04T06:14:14.548Z,101358.30
2019-02-04T06:16:40.505Z,101358.30
2019-02-04T06:19:06.626Z,101370.43
2019-02-04T06:21:32.646Z,101373.05
2019-02-04T06:23:59.079Z,101363.95
2019-02-04T06:26:24.996Z,101363.95
2019-02-04T06:28:51.156Z,101366.95
2019-02-04T06:31:17.302Z,101383.83
2019-02-04T06:33:43.240Z,101383.83
2019-02-04T06:36:09.294Z,101391.19
2019-02-04T06:38:37.215Z,101382.53
2019-02-04T06:41:03.327Z,101389.89
2019-02-04T06:43:29.695Z,101388.94
2019-02-04T06:45:55.796Z,101388.94
2019-02-04T06:48:22.168Z,101404.98
2019-02-04T06:50:50.904Z,101404.98
2019-02-04T06:53:16.177Z,101408.88
2019-02-04T06:55:42.191Z,101414.47
2019-02-04T06:58:08.342Z,101414.47
2019-02-04T07:00:34.259Z,101413.58
2019-02-04T07:03:00.476Z,101404.03
2019-02-04T07:05:26.633Z,101394.12
2019-02-04T07:07:52.699Z,101394.12
2019-02-04T07:10:21.750Z,101399.81
2019-02-04T07:12:47.898Z,101399.37
2019-02-04T07:15:14.202Z,101395.89
2019-02-04T07:17:40.301Z,101407.10
2019-02-04T07:20:10.034Z,101407.10
2019-02-04T07:22:36.072Z,101404.95
2019-02-04T07:25:03.193Z,101401.89
2019-02-04T07:27:29.124Z,101411.39
2019-02-04T07:29:55.086Z,101411.39
2019-02-04T07:32:21.197Z,101412.22
2019-02-04T07:34:47.318Z,101414.36
2019-02-04T07:37:13.271Z,101395.58
2019-02-04T07:39:39.198Z,101395.58
2019-02-04T07:42:05.398Z,101421.69
2019-02-04T07:44:31.674Z,101418.66
2019-02-04T07:46:57.820Z,101418.66
2019-02-04T07:49:34.741Z,101409.48
2019-02-04T07:51:51.891Z,101415.22
2019-02-04T07:54:17.826Z,101409.52
2019-02-04T07:56:43.760Z,101409.52
2019-02-04T07:59:09.657Z,101416.88
2019-02-04T08:01:35.579Z,101425.50
2019-02-04T08:04:01.483Z,101420.73
2019-02-04T08:06:27.448Z,101417.25
2019-02-04T08:08:53.711Z,101422.88
2019-02-04T08:11:19.729Z,101428.06
2019-02-04T08:13:45.776Z,101426.22
2019-02-04T08:16:11.826Z,101426.22
2019-02-04T08:18:37.840Z,101437.94
2019-02-04T08:21:04.066Z,101429.66
2019-02-04T08:23:30.156Z,101437.91
2019-02-04T08:25:56.177Z,101429.62
2019-02-04T08:28:22.214Z,101429.62
2019-02-04T08:30:48.168Z,101433.06
2019-02-04T08:33:14.174Z,101441.27
2019-02-04T08:35:40.301Z,101445.53
2019-02-04T08:38:06.463Z,101445.53
2019-02-04T08:40:32.781Z,101443.75
2019-02-04T08:42:58.824Z,101449.38
2019-02-04T08:45:25.136Z,101451.11
2019-02-04T08:47:51.198Z,101438.84
2019-02-04T08:50:22.080Z,101450.67
2019-02-04T08:52:48.361Z,101458.41
2019-02-04T08:55:14.397Z,101456.70
2019-02-04T08:57:40.626Z,101462.70
2019-02-04T09:00:16.992Z,101463.13
2019-02-04T09:02:43.119Z,101464.43
2019-02-04T09:05:11.461Z,101466.55
2019-02-04T09:07:37.611Z,101472.56
2019-02-04T09:10:07.239Z,101472.56
2019-02-04T09:12:33.368Z,101466.43
2019-02-04T09:14:59.294Z,101466.43
2019-02-04T09:17:25.539Z,101471.23
2019-02-04T09:19:51.475Z,101478.56
2019-02-04T09:22:17.498Z,101470.79
2019-02-04T09:24:43.562Z,101482.85
2019-02-04T09:27:09.618Z,101480.27
2019-02-04T09:29:35.508Z,101480.27
2019-02-04T09:32:01.438Z,101485.40
2019-02-04T09:34:29.857Z,101484.11
2019-02-04T09:36:55.541Z,101484.07
2019-02-04T09:39:21.817Z,101484.48
2019-02-04T09:41:47.938Z,101487.95
2019-02-04T09:44:13.869Z,101487.95
2019-02-04T09:46:40.361Z,101493.09
2019-02-04T09:49:06.403Z,101499.97
2019-02-04T09:51:34.282Z,101502.56
2019-02-04T09:54:00.222Z,101502.52
2019-02-04T09:56:26.165Z,101515.06
2019-02-04T09:58:52.475Z,101506.41
2019-02-04T10:01:18.526Z,101506.41
2019-02-04T10:03:44.540Z,101512.84
2019-02-04T10:06:10.676Z,101513.28
2019-02-04T10:08:36.772Z,101512.31
2019-02-04T10:11:02.991Z,101512.31
2019-02-04T10:13:28.951Z,101511.51
2019-02-04T10:15:55.067Z,101519.27
2019-02-04T10:18:21.323Z,101522.71
2019-02-04T10:20:47.334Z,101526.59
2019-02-04T10:23:13.435Z,101526.59
2019-02-04T10:25:41.526Z,101527.89
2019-02-04T10:28:08.591Z,101533.47
2019-02-04T10:30:34.905Z,101524.38
2019-02-04T10:33:01.108Z,101523.56
2019-02-04T10:35:27.650Z,101529.55
2019-02-04T10:37:53.950Z,101529.55
2019-02-04T10:40:27.740Z,101529.55
2019-02-04T10:42:53.973Z,101532.58
2019-02-04T10:45:20.418Z,101539.86
2019-02-04T10:47:47.410Z,101533.83
2019-02-04T10:50:21.716Z,101532.05
2019-02-04T10:52:47.851Z,101532.05
2019-02-04T10:55:14.366Z,101540.27
2019-02-04T10:57:40.975Z,101546.77
2019-02-04T11:00:13.682Z,101540.67
2019-02-04T11:02:39.913Z,101554.91
2019-02-04T11:05:09.234Z,101559.20
2019-02-04T11:07:35.653Z,101559.20
2019-02-04T11:10:03.361Z,101560.94
2019-02-04T11:12:29.531Z,101558.34
2019-02-04T11:14:55.598Z,101559.52
2019-02-04T11:17:21.542Z,101559.59
2019-02-04T11:19:47.570Z,101566.88
2019-02-04T11:22:13.567Z,101568.58
2019-02-04T11:24:39.621Z,101574.60
2019-02-04T11:27:06.211Z,101568.54
2019-02-04T11:29:32.371Z,101566.39
2019-02-04T11:31:58.594Z,101559.88
2019-02-04T11:34:24.678Z,101568.90
2019-02-04T11:36:50.788Z,101577.95
2019-02-04T11:39:16.798Z,101568.41
2019-02-04T11:41:42.972Z,101576.66
2019-02-04T11:44:08.953Z,101575.77
2019-02-04T11:46:35.169Z,101573.55
2019-02-04T11:49:01.344Z,101576.62
2019-02-04T11:51:27.476Z,101573.10
2019-02-04T11:53:53.630Z,101573.10
2019-02-04T11:56:19.635Z,101577.88
2019-02-04T11:58:45.681Z,101573.86
2019-02-04T12:01:11.781Z,101591.54
2019-02-04T12:03:37.924Z,101591.54
2019-02-04T12:06:04.348Z,101604.11
2019-02-04T12:08:30.481Z,101602.82
2019-02-04T12:10:59.876Z,101605.37
2019-02-04T12:13:25.930Z,101601.03
2019-02-04T12:15:52.956Z,101601.89
2019-02-04T12:18:19.109Z,101606.17
2019-02-04T12:20:45.263Z,101603.14
2019-02-04T12:23:11.491Z,101613.09
2019-02-04T12:25:37.825Z,101612.20
2019-02-04T12:28:04.245Z,101619.52
2019-02-04T12:30:35.905Z,101613.89
2019-02-04T12:33:03.833Z,101604.75
2019-02-04T12:35:29.988Z,101617.73
2019-02-04T12:37:56.191Z,101617.73
2019-02-04T12:40:22.440Z,101613.36
2019-02-04T12:42:48.764Z,101625.01
2019-02-04T12:45:26.632Z,101626.70
2019-02-04T12:47:53.149Z,101626.70
2019-02-04T12:50:19.451Z,101628.84
2019-02-04T12:52:45.437Z,101627.51
2019-02-04T12:55:20.185Z,101636.16
2019-02-04T12:57:46.497Z,101630.94
2019-02-04T13:00:20.587Z,101641.20
2019-02-04T13:02:46.799Z,101641.20
2019-02-04T13:05:15.938Z,101648.16
2019-02-04T13:07:41.944Z,101654.59
2019-02-04T13:10:10.829Z,101654.59
2019-02-04T13:12:37.256Z,101652.00
2019-02-04T13:15:06.945Z,101652.44
2019-02-04T13:17:32.888Z,101657.57
2019-02-04T13:19:58.941Z,101655.79
2019-02-04T13:22:24.918Z,101653.16
2019-02-04T13:24:51.135Z,101656.59
2019-02-04T13:27:17.245Z,101658.73
2019-02-04T13:29:43.292Z,101656.14
2019-02-04T13:32:09.600Z,101650.88
2019-02-04T13:34:35.734Z,101650.44
2019-02-04T13:37:01.859Z,101650.44
2019-02-04T13:39:27.883Z,101649.50
2019-02-04T13:41:54.025Z,101647.31
2019-02-04T13:44:19.960Z,101647.31
2019-02-04T13:46:46.076Z,101642.95
2019-02-04T13:49:14.067Z,101648.96
2019-02-04T13:51:40.379Z,101659.72
2019-02-04T13:54:06.503Z,101662.25
2019-02-04T13:56:32.405Z,101672.60
2019-02-04T13:58:58.355Z,101670.41
2019-02-04T14:01:24.359Z,101669.52
2019-02-04T14:03:50.468Z,101669.47
2019-02-04T14:06:16.402Z,101673.30
2019-02-04T14:08:42.527Z,101674.55
2019-02-04T14:11:08.665Z,101679.73
2019-02-04T14:13:34.669Z,101674.46
2019-02-04T14:16:00.800Z,101686.09
2019-02-04T14:18:26.899Z,101691.63
2019-02-04T14:20:52.961Z,101693.81
2019-02-04T14:23:19.069Z,101697.59
2019-02-04T14:25:45.195Z,101706.23
2019-02-04T14:28:11.613Z,101709.19
2019-02-04T14:30:38.047Z,101717.78
2019-02-04T14:33:04.450Z,101716.00
2019-02-04T14:35:30.681Z,101720.27
2019-02-04T14:37:57.039Z,101717.64
2019-02-04T14:40:23.232Z,101714.97
2019-02-04T14:42:55.720Z,101723.16
2019-02-04T14:45:31.381Z,101721.82
2019-02-04T14:48:15.800Z,101719.99
2019-02-04T14:51:05.071Z,101725.60
2019-02-04T14:53:35.045Z,101726.41
2019-02-04T14:56:10.493Z,101731.02
2019-02-04T14:58:51.609Z,101739.63
2019-02-04T15:01:38.292Z,101734.41
2019-02-04T15:04:08.052Z,101736.45
2019-02-04T15:06:37.741Z,101732.47
2019-02-04T15:09:40.792Z,101732.45
2019-02-04T15:12:19.597Z,101728.97
2019-02-04T15:15:10.461Z,101731.95
2019-02-04T15:17:39.803Z,101728.37
2019-02-04T15:20:26.005Z,101733.00
2019-02-04T15:23:16.865Z,101733.00
2019-02-04T15:25:52.302Z,101733.75
2019-02-04T15:28:36.931Z,101722.91
2019-02-04T15:31:40.809Z,101732.25
2019-02-04T15:34:27.140Z,101733.93
2019-02-04T15:37:08.948Z,101733.39
2019-02-04T15:39:53.609Z,101735.47
2019-02-04T15:42:52.997Z,101736.26
2019-02-04T15:45:42.265Z,101735.27
2019-02-04T15:48:09.300Z,101732.63
2019-02-04T15:50:45.226Z,101729.05
2019-02-04T15:53:11.310Z,101724.32
2019-02-04T15:55:40.024Z,101726.31
2019-02-04T15:58:05.531Z,101722.38
2019-02-04T16:00:31.668Z,101724.11
2019-02-04T16:02:57.785Z,101720.98
2019-02-04T16:05:23.712Z,101721.83
2019-02-04T16:07:49.751Z,101720.94
2019-02-04T16:10:16.165Z,101721.72
2019-02-04T16:12:42.260Z,101719.48
2019-02-04T16:15:10.186Z,101727.12
2019-02-04T16:17:36.191Z,101728.36
2019-02-04T16:20:05.729Z,101729.55
2019-02-04T16:22:32.061Z,101732.53
2019-02-04T16:24:58.979Z,101733.72
2019-02-04T16:27:24.897Z,101736.19
2019-02-04T16:29:50.915Z,101737.03
2019-02-04T16:32:16.941Z,101737.81
2019-02-04T16:34:43.037Z,101742.03
2019-02-04T16:37:09.155Z,101741.03
2019-02-04T16:39:35.176Z,101732.83
2019-02-04T16:42:01.590Z,101739.63
2019-02-04T16:44:27.739Z,101739.52
2019-02-04T16:46:54.635Z,101748.09
2019-02-04T16:49:20.697Z,101754.89
2019-02-04T16:51:46.701Z,101759.11
2019-02-04T16:54:12.734Z,101771.11
2019-02-04T16:56:38.849Z,101757.66
2019-02-04T16:59:05.074Z,101761.91
2019-02-04T17:01:31.197Z,101759.27
2019-02-04T17:03:57.212Z,101762.59
2019-02-04T17:06:23.213Z,101765.11
2019-02-04T17:08:49.362Z,101774.47
2019-02-04T17:11:15.469Z,101774.47
2019-02-04T17:13:41.518Z,101778.68
2019-02-04T17:16:07.633Z,101777.73
2019-02-04T17:18:33.744Z,101767.35
2019-02-04T17:20:59.776Z,101770.22
2019-02-04T17:23:26.043Z,101772.73
2019-02-04T17:25:52.177Z,101781.71
2019-02-04T17:28:18.420Z,101781.20
2019-02-04T17:30:44.301Z,101779.39
2019-02-04T17:33:10.454Z,101772.39
2019-02-04T17:35:36.745Z,101774.12
2019-02-04T17:38:04.193Z,101785.17
2019-02-04T17:40:30.521Z,101784.26
2019-02-04T17:42:57.652Z,101789.36
2019-02-04T17:45:23.738Z,101793.56
2019-02-04T17:47:51.263Z,101787.40
2019-02-04T17:50:18.999Z,101803.31
2019-02-04T17:52:45.123Z,101805.39
2019-02-04T17:55:14.013Z,101806.63
2019-02-04T17:57:40.197Z,101804.42
2019-02-04T18:00:12.141Z,101803.52
2019-02-04T18:02:38.032Z,101795.73
2019-02-04T18:05:04.569Z,101798.70
2019-02-04T18:07:30.574Z,101794.38
2019-02-04T18:09:56.464Z,101797.76
2019-02-04T18:12:22.500Z,101805.92
2019-02-04T18:14:48.493Z,101812.70
2019-02-04T18:17:14.646Z,101815.50
2019-02-04T18:19:40.854Z,101815.50
2019-02-04T18:22:06.985Z,101823.23
2019-02-04T18:24:32.966Z,101828.34
2019-02-04T18:26:59.164Z,101829.63
2019-02-04T18:29:25.203Z,101833.92
2019-02-04T18:31:51.208Z,101831.68
2019-02-04T18:34:17.151Z,101838.95
2019-02-04T18:36:43.055Z,101838.46
2019-02-04T18:39:09.800Z,101837.60
2019-02-04T18:41:35.904Z,101841.41
2019-02-04T18:44:02.428Z,101838.34
2019-02-04T18:46:28.625Z,101842.64
2019-02-04T18:48:54.704Z,101841.28
2019-02-04T18:51:20.818Z,101835.64
2019-02-04T18:53:57.434Z,101830.02
2019-02-04T18:56:14.762Z,101832.14
2019-02-04T18:58:40.937Z,101832.53
2019-02-04T19:01:07.075Z,101840.20
2019-02-04T19:03:33.158Z,101841.83
2019-02-04T19:05:59.171Z,101839.25
2019-02-04T19:08:25.071Z,101840.08
2019-02-04T19:10:51.210Z,101836.55
2019-02-04T19:13:17.219Z,101836.09
2019-02-04T19:15:43.378Z,101834.30
2019-02-04T19:18:12.025Z,101834.67
2019-02-04T19:20:38.256Z,101834.67
2019-02-04T19:23:04.540Z,101844.92
2019-02-04T19:25:30.454Z,101843.14
2019-02-04T19:27:56.474Z,101844.86
2019-02-04T19:30:29.330Z,101843.01
2019-02-04T19:32:55.658Z,101843.01
2019-02-04T19:35:21.769Z,101844.73
2019-02-04T19:37:47.681Z,101841.62
2019-02-04T19:40:15.308Z,101846.78
2019-02-04T19:42:41.445Z,101845.92
2019-02-04T19:45:11.201Z,101837.70
2019-02-04T19:47:37.101Z,101835.55
2019-02-04T19:50:07.240Z,101842.00
2019-02-04T19:52:33.228Z,101842.79
2019-02-04T19:54:59.166Z,101842.79
2019-02-04T19:57:25.273Z,101835.77
2019-02-04T19:59:51.379Z,101838.80
2019-02-04T20:02:17.308Z,101840.91
2019-02-04T20:04:43.607Z,101839.56
2019-02-04T20:07:09.713Z,101838.61
2019-02-04T20:09:36.029Z,101844.19
2019-02-04T20:12:02.084Z,101840.26
2019-02-04T20:14:28.080Z,101840.20
2019-02-04T20:16:54.073Z,101838.84
2019-02-04T20:19:20.028Z,101841.30
2019-02-04T20:21:46.129Z,101841.30
2019-02-04T20:24:12.193Z,101848.06
2019-02-04T20:26:38.076Z,101851.03
2019-02-04T20:29:04.224Z,101845.36
2019-02-04T20:31:30.530Z,101841.83
2019-02-04T20:33:56.578Z,101839.58
2019-02-04T20:36:22.688Z,101838.66
2019-02-04T20:38:48.674Z,101840.73
2019-02-04T20:41:14.589Z,101835.95
2019-02-04T20:43:40.518Z,101831.52
2019-02-04T20:46:06.657Z,101845.23
2019-02-04T20:48:32.660Z,101849.48
2019-02-04T20:51:00.606Z,101852.00
2019-02-04T20:53:26.744Z,101845.92
2019-02-04T20:55:52.640Z,101845.86
2019-02-04T20:58:18.575Z,101847.94
2019-02-04T21:00:44.731Z,101847.02
2019-02-04T21:03:10.858Z,101856.81
2019-02-04T21:05:36.881Z,101858.04
2019-02-04T21:08:03.781Z,101852.82
2019-02-04T21:10:29.922Z,101852.36
2019-02-04T21:12:56.719Z,101855.27
2019-02-04T21:15:23.182Z,101841.03
2019-02-04T21:17:49.507Z,101844.36
2019-02-04T21:20:21.174Z,101845.16
2019-02-04T21:22:47.292Z,101836.02
2019-02-04T21:25:13.590Z,101844.09
2019-02-04T21:27:39.722Z,101846.04
2019-02-04T21:30:15.563Z,101849.77
2019-02-04T21:32:41.628Z,101853.56
2019-02-04T21:35:07.745Z,101853.84
2019-02-04T21:37:33.774Z,101862.30
2019-02-04T21:39:59.691Z,101860.87
2019-02-04T21:42:25.829Z,101867.23
2019-02-04T21:44:51.867Z,101868.38
2019-02-04T21:47:18.276Z,101870.81
2019-02-04T21:49:44.367Z,101865.92
2019-02-04T21:52:10.500Z,101881.72
2019-02-04T21:54:36.387Z,101886.73
2019-02-04T21:57:02.430Z,101890.02
2019-02-04T21:59:28.354Z,101896.31
2019-02-04T22:01:54.558Z,101904.78
2019-02-04T22:04:20.440Z,101898.59
2019-02-04T22:06:46.348Z,101898.06
2019-02-04T22:09:12.553Z,101901.38
2019-02-04T22:11:38.571Z,101907.25
2019-02-04T22:14:05.211Z,101904.92
2019-02-04T22:16:31.105Z,101903.99
2019-02-04T22:18:57.326Z,101904.63
2019-02-04T22:21:23.235Z,101909.23
2019-02-04T22:23:49.189Z,101906.45
2019-02-04T22:26:15.200Z,101912.41
2019-02-04T22:28:41.218Z,101898.44
2019-02-04T22:31:07.253Z,101895.41
2019-02-04T22:33:33.270Z,101896.94
2019-02-04T22:35:59.216Z,101897.19
2019-02-04T22:38:25.236Z,101887.17
2019-02-04T22:40:51.340Z,101888.70
2019-02-04T22:43:17.267Z,101886.85
2019-02-04T22:45:43.313Z,101886.73
2019-02-04T22:48:09.263Z,101882.34
2019-02-04T22:50:35.275Z,101885.16
2019-02-04T22:53:02.333Z,101890.14
2019-02-04T22:55:31.970Z,101900.34
2019-02-04T22:57:56.636Z,101897.63
2019-02-04T23:00:31.027Z,101903.52
2019-02-04T23:02:57.252Z,101900.40
2019-02-04T23:05:23.354Z,101900.56
2019-02-04T23:07:49.767Z,101900.87
2019-02-04T23:10:15.987Z,101892.05
2019-02-04T23:12:42.090Z,101893.69
2019-02-04T23:15:08.733Z,101890.46
2019-02-04T23:17:34.862Z,101898.52
2019-02-04T23:20:00.875Z,101889.77
2019-02-04T23:22:26.808Z,101889.61
2019-02-04T23:24:52.813Z,101890.35
2019-02-04T23:27:19.033Z,101891.48
2019-02-04T23:29:45.380Z,101889.55
2019-02-04T23:32:11.376Z,101888.57
2019-02-04T23:34:37.409Z,101892.84
2019-02-04T23:37:03.395Z,101890.52
2019-02-04T23:39:29.339Z,101912.58
2019-02-04T23:41:58.256Z,101912.58
2019-02-04T23:44:23.092Z,101908.17
2019-02-04T23:46:49.297Z,101908.48
2019-02-04T23:49:15.328Z,101895.92
2019-02-04T23:51:41.446Z,101886.86
2019-02-04T23:54:07.470Z,101883.23
2019-02-04T23:56:33.620Z,101886.20
2019-02-04T23:58:59.623Z,101889.58
